createdAt,value
2018-02-23T00:00:22.332Z,9.68
2018-02-23T00:02:49.714Z,9.15
2018-02-23T00:05:17.108Z,21.20
2018-02-23T00:07:47.302Z,9.50
2018-02-23T00:10:14.706Z,8.70
2018-02-23T00:12:42.087Z,9.57
2018-02-23T00:15:09.474Z,9.00
2018-02-23T00:17:36.878Z,8.80
2018-02-23T00:20:04.274Z,9.07
2018-02-23T00:22:41.615Z,9.02
2018-02-23T00:25:09.147Z,8.13
2018-02-23T00:27:36.533Z,9.17
2018-02-23T00:30:03.893Z,8.85
2018-02-23T00:32:31.281Z,7.90
2018-02-23T00:34:58.711Z,9.07
2018-02-23T00:37:26.079Z,8.37
2018-02-23T00:39:53.461Z,9.87
2018-02-23T00:42:21.086Z,8.50
2018-02-23T00:44:48.466Z,9.07
2018-02-23T00:47:16.030Z,9.18
2018-02-23T00:49:43.398Z,9.00
2018-02-23T00:52:10.832Z,8.07
2018-02-23T00:54:38.261Z,9.20
2018-02-23T00:57:05.703Z,8.40
2018-02-23T00:59:33.062Z,9.53
2018-02-23T01:02:00.751Z,10.57
2018-02-23T01:04:28.177Z,8.83
2018-02-23T01:06:55.539Z,9.83
2018-02-23T01:09:23.002Z,9.85
2018-02-23T01:11:50.385Z,8.93
2018-02-23T01:14:18.465Z,9.67
2018-02-23T01:16:46.136Z,9.18
2018-02-23T01:19:13.541Z,8.57
2018-02-23T01:21:40.914Z,8.83
2018-02-23T01:24:08.651Z,8.33
2018-02-23T01:26:36.060Z,8.80
2018-02-23T01:29:03.501Z,8.87
2018-02-23T01:31:30.981Z,8.23
2018-02-23T01:33:58.383Z,9.33
2018-02-23T01:36:25.758Z,9.40
2018-02-23T01:38:53.164Z,8.73
2018-02-23T01:41:20.725Z,9.20
2018-02-23T01:43:48.119Z,9.73
2018-02-23T01:46:16.305Z,10.00
2018-02-23T01:48:43.699Z,9.40
2018-02-23T01:51:11.440Z,9.10
2018-02-23T01:53:38.981Z,9.63
2018-02-23T01:56:06.668Z,9.47
2018-02-23T01:58:34.284Z,8.18
2018-02-23T02:01:01.727Z,8.50
2018-02-23T02:03:29.106Z,9.98
2018-02-23T02:05:56.501Z,9.37
2018-02-23T02:08:23.882Z,9.30
2018-02-23T02:10:51.316Z,9.07
2018-02-23T02:13:18.691Z,9.20
2018-02-23T02:15:46.315Z,9.35
2018-02-23T02:18:13.703Z,8.83
2018-02-23T02:20:41.069Z,9.43
2018-02-23T02:23:08.459Z,11.00
2018-02-23T02:25:35.853Z,9.20
2018-02-23T02:28:05.307Z,9.35
2018-02-23T02:30:32.758Z,8.63
2018-02-23T02:33:00.182Z,9.73
2018-02-23T02:35:27.733Z,9.30
2018-02-23T02:37:55.102Z,9.03
2018-02-23T02:40:22.724Z,9.77
2018-02-23T02:42:50.158Z,9.00
2018-02-23T02:45:17.831Z,9.70
2018-02-23T02:47:45.590Z,8.83
2018-02-23T02:50:13.088Z,8.47
2018-02-23T02:52:40.504Z,8.70
2018-02-23T02:55:08.096Z,8.97
2018-02-23T02:57:35.467Z,9.60
2018-02-23T03:00:02.982Z,8.77
2018-02-23T03:02:30.398Z,9.07
2018-02-23T03:04:57.791Z,9.02
2018-02-23T03:07:25.216Z,8.80
2018-02-23T03:09:52.641Z,8.60
2018-02-23T03:12:20.067Z,9.73
2018-02-23T03:14:47.461Z,10.13
2018-02-23T03:17:14.901Z,8.77
2018-02-23T03:19:42.342Z,8.33
2018-02-23T03:22:09.902Z,8.87
2018-02-23T03:24:37.284Z,8.43
2018-02-23T03:27:04.877Z,9.63
2018-02-23T03:29:32.267Z,8.27
2018-02-23T03:31:59.637Z,8.03
2018-02-23T03:34:27.309Z,8.43
2018-02-23T03:36:55.061Z,8.50
2018-02-23T03:39:22.481Z,8.52
2018-02-23T03:41:49.890Z,8.90
2018-02-23T03:44:17.268Z,8.00
2018-02-23T03:46:44.654Z,8.00
2018-02-23T03:49:12.094Z,7.93
2018-02-23T03:51:39.500Z,8.10
2018-02-23T03:54:06.877Z,8.83
2018-02-23T03:56:34.242Z,8.20
2018-02-23T03:59:01.640Z,8.25
2018-02-23T04:01:29.187Z,7.82
2018-02-23T04:03:56.642Z,9.07
2018-02-23T04:06:24.038Z,8.65
2018-02-23T04:08:51.425Z,7.97
2018-02-23T04:11:18.864Z,8.83
2018-02-23T04:13:46.850Z,7.70
2018-02-23T04:16:14.218Z,8.50
2018-02-23T04:18:41.599Z,7.37
2018-02-23T04:21:08.965Z,7.77
2018-02-23T04:23:36.616Z,8.00
2018-02-23T04:26:03.978Z,6.77
2018-02-23T04:28:31.443Z,7.70
2018-02-23T04:30:58.774Z,8.32
2018-02-23T04:33:26.272Z,7.70
2018-02-23T04:35:53.633Z,7.93
2018-02-23T04:38:21.593Z,8.65
2018-02-23T04:40:48.978Z,8.02
2018-02-23T04:43:17.060Z,7.87
2018-02-23T04:45:44.477Z,7.90
2018-02-23T04:48:11.844Z,8.90
2018-02-23T04:50:39.275Z,7.47
2018-02-23T04:53:06.679Z,8.77
2018-02-23T04:55:34.062Z,8.50
2018-02-23T04:58:01.470Z,8.07
2018-02-23T05:00:28.830Z,8.07
2018-02-23T05:02:56.342Z,8.80
2018-02-23T05:05:23.718Z,9.07
2018-02-23T05:07:51.118Z,8.10
2018-02-23T05:10:18.560Z,8.63
2018-02-23T05:12:45.985Z,8.23
2018-02-23T05:15:14.371Z,8.93
2018-02-23T05:17:41.749Z,8.83
2018-02-23T05:20:09.122Z,8.70
2018-02-23T05:22:36.487Z,8.77
2018-02-23T05:25:04.935Z,9.40
2018-02-23T05:27:32.449Z,8.93
2018-02-23T05:29:59.885Z,9.55
2018-02-23T05:32:27.266Z,8.97
2018-02-23T05:34:54.636Z,9.50
2018-02-23T05:37:22.035Z,9.17
2018-02-23T05:39:49.418Z,9.73
2018-02-23T05:42:17.290Z,8.77
2018-02-23T05:44:44.674Z,9.37
2018-02-23T05:47:12.062Z,11.93
2018-02-23T05:49:39.430Z,9.80
2018-02-23T05:52:06.815Z,10.57
2018-02-23T05:54:34.234Z,8.80
2018-02-23T05:57:01.618Z,9.47
2018-02-23T05:59:29.049Z,9.13
2018-02-23T06:01:56.409Z,9.70
2018-02-23T06:04:23.992Z,9.77
2018-02-23T06:06:51.357Z,9.20
2018-02-23T06:09:18.751Z,8.83
2018-02-23T06:11:46.231Z,9.03
2018-02-23T06:14:13.972Z,9.53
2018-02-23T06:16:41.361Z,9.60
2018-02-23T06:19:08.754Z,10.03
2018-02-23T06:21:36.142Z,9.90
2018-02-23T06:24:03.518Z,11.10
2018-02-23T06:26:30.902Z,10.10
2018-02-23T06:28:58.298Z,9.93
2018-02-23T06:31:25.705Z,8.50
2018-02-23T06:33:53.090Z,9.43
2018-02-23T06:36:20.574Z,10.90
2018-02-23T06:38:47.950Z,9.80
2018-02-23T06:41:15.359Z,11.07
2018-02-23T06:43:42.739Z,10.10
2018-02-23T06:46:10.118Z,11.10
2018-02-23T06:48:38.293Z,10.20
2018-02-23T06:51:05.697Z,9.67
2018-02-23T06:53:33.086Z,9.83
2018-02-23T06:56:00.466Z,10.27
2018-02-23T06:58:27.841Z,10.00
2018-02-23T07:00:55.359Z,10.40
2018-02-23T07:03:22.774Z,10.34
2018-02-23T07:05:50.248Z,10.10
2018-02-23T07:08:17.721Z,10.30
2018-02-23T07:10:45.144Z,10.27
2018-02-23T07:13:12.515Z,10.30
2018-02-23T07:15:39.902Z,10.27
2018-02-23T07:18:07.405Z,9.80
2018-02-23T07:20:34.734Z,10.43
2018-02-23T07:23:02.229Z,10.40
2018-02-23T07:25:29.625Z,10.20
2018-02-23T07:27:57.012Z,10.48
2018-02-23T07:30:24.419Z,10.83
2018-02-23T07:32:51.817Z,11.23
2018-02-23T07:35:19.203Z,11.57
2018-02-23T07:37:46.599Z,11.17
2018-02-23T07:40:14.174Z,10.40
2018-02-23T07:42:41.586Z,11.10
2018-02-23T07:45:09.031Z,10.48
2018-02-23T07:47:36.400Z,11.10
2018-02-23T07:50:03.790Z,10.95
2018-02-23T07:52:31.202Z,10.17
2018-02-23T07:54:58.607Z,10.63
2018-02-23T07:57:27.122Z,11.73
2018-02-23T07:59:54.718Z,10.53
2018-02-23T08:02:22.089Z,11.03
2018-02-23T08:04:49.470Z,10.80
2018-02-23T08:07:16.893Z,11.90
2018-02-23T08:09:44.282Z,12.10
2018-02-23T08:12:11.662Z,11.30
2018-02-23T08:14:39.073Z,10.50
2018-02-23T08:17:06.487Z,10.77
2018-02-23T08:19:34.009Z,11.93
2018-02-23T08:22:01.425Z,11.45
2018-02-23T08:24:28.808Z,10.50
2018-02-23T08:26:56.232Z,12.10
2018-02-23T08:29:23.611Z,11.53
2018-02-23T08:31:51.933Z,11.52
2018-02-23T08:34:19.325Z,11.67
2018-02-23T08:36:46.697Z,12.30
2018-02-23T08:39:14.078Z,12.57
2018-02-23T08:41:41.512Z,12.93
2018-02-23T08:44:08.923Z,12.20
2018-02-23T08:46:36.341Z,12.20
2018-02-23T08:49:03.757Z,12.93
2018-02-23T08:51:31.154Z,12.93
2018-02-23T08:53:58.557Z,12.40
2018-02-23T08:56:26.041Z,12.83
2018-02-23T08:58:53.418Z,12.80
2018-02-23T09:01:20.852Z,13.00
2018-02-23T09:03:48.342Z,12.43
2018-02-23T09:06:15.743Z,13.27
2018-02-23T09:08:43.209Z,13.07
2018-02-23T09:11:10.685Z,13.90
2018-02-23T09:13:38.060Z,13.73
2018-02-23T09:16:05.438Z,14.20
2018-02-23T09:18:32.854Z,13.20
2018-02-23T09:21:00.915Z,14.90
2018-02-23T09:23:28.528Z,13.53
2018-02-23T09:25:55.907Z,12.80
2018-02-23T09:28:23.348Z,13.88
2018-02-23T09:30:52.169Z,15.43
2018-02-23T09:33:19.559Z,13.87
2018-02-23T09:35:46.962Z,13.87
2018-02-23T09:38:14.346Z,14.40
2018-02-23T09:40:41.737Z,13.73
2018-02-23T09:43:09.107Z,14.70
2018-02-23T09:45:36.543Z,15.00
2018-02-23T09:48:03.990Z,15.82
2018-02-23T09:50:31.345Z,15.88
2018-02-23T09:52:58.737Z,14.70
2018-02-23T09:55:26.201Z,14.55
2018-02-23T09:57:53.583Z,15.50
2018-02-23T10:00:21.020Z,14.53
2018-02-23T10:02:48.559Z,13.90
2018-02-23T10:05:15.978Z,15.20
2018-02-23T10:07:43.348Z,13.20
2018-02-23T10:10:10.722Z,14.30
2018-02-23T10:12:38.370Z,13.17
2018-02-23T10:15:05.757Z,13.85
2018-02-23T10:17:33.209Z,14.40
2018-02-23T10:20:00.590Z,12.00
2018-02-23T10:22:28.045Z,13.57
2018-02-23T10:24:55.454Z,13.63
2018-02-23T10:27:22.855Z,12.82
2018-02-23T10:29:50.297Z,13.00
2018-02-23T10:32:17.662Z,13.13
2018-02-23T10:34:45.056Z,13.80
2018-02-23T10:37:12.436Z,13.93
2018-02-23T10:39:39.890Z,12.27
2018-02-23T10:42:07.339Z,13.07
2018-02-23T10:44:34.724Z,12.37
2018-02-23T10:47:02.155Z,11.63
2018-02-23T10:49:33.724Z,13.40
2018-02-23T10:52:02.307Z,14.27
2018-02-23T10:54:29.745Z,12.73
2018-02-23T10:56:57.085Z,13.27
2018-02-23T10:59:24.464Z,12.30
2018-02-23T11:01:51.861Z,13.50
2018-02-23T11:04:19.249Z,12.07
2018-02-23T11:06:46.654Z,12.33
2018-02-23T11:09:14.078Z,13.47
2018-02-23T11:11:41.457Z,13.67
2018-02-23T11:14:08.872Z,11.95
2018-02-23T11:16:36.328Z,13.10
2018-02-23T11:19:03.726Z,13.70
2018-02-23T11:21:31.115Z,14.20
2018-02-23T11:23:58.515Z,12.33
2018-02-23T11:26:25.899Z,12.90
2018-02-23T11:28:53.315Z,13.40
2018-02-23T11:31:20.714Z,12.70
2018-02-23T11:33:49.012Z,11.55
2018-02-23T11:36:16.538Z,11.50
2018-02-23T11:38:43.911Z,11.65
2018-02-23T11:41:11.282Z,12.13
2018-02-23T11:43:38.666Z,13.67
2018-02-23T11:46:06.079Z,12.10
2018-02-23T11:48:33.461Z,11.60
2018-02-23T11:51:00.868Z,12.23
2018-02-23T11:53:28.292Z,11.80
2018-02-23T11:55:55.705Z,11.93
2018-02-23T11:58:23.070Z,12.82
2018-02-23T12:00:50.495Z,12.70
2018-02-23T12:03:17.858Z,12.73
2018-02-23T12:05:45.233Z,13.50
2018-02-23T12:08:12.752Z,12.07
2018-02-23T12:10:40.195Z,12.00
2018-02-23T12:13:07.764Z,11.57
2018-02-23T12:15:35.225Z,12.00
2018-02-23T12:18:02.701Z,11.65
2018-02-23T12:20:30.107Z,13.10
2018-02-23T12:22:57.490Z,12.30
2018-02-23T12:25:27.424Z,10.80
2018-02-23T12:27:56.058Z,11.70
2018-02-23T12:30:23.580Z,11.30
2018-02-23T12:32:51.090Z,11.57
2018-02-23T12:35:20.315Z,12.98
2018-02-23T12:37:47.766Z,11.20
2018-02-23T12:40:15.632Z,12.70
2018-02-23T12:42:43.134Z,11.90
2018-02-23T12:45:10.536Z,12.80
2018-02-23T12:47:37.983Z,11.50
2018-02-23T12:50:06.106Z,11.85
2018-02-23T12:52:33.496Z,11.60
2018-02-23T12:55:00.908Z,12.30
2018-02-23T12:57:28.395Z,12.18
2018-02-23T12:59:55.834Z,11.50
2018-02-23T13:02:23.265Z,12.43
2018-02-23T13:04:50.904Z,11.37
2018-02-23T13:07:19.429Z,12.30
2018-02-23T13:09:46.908Z,12.00
2018-02-23T13:12:14.521Z,10.70
2018-02-23T13:14:48.075Z,12.13
2018-02-23T13:17:15.448Z,11.70
2018-02-23T13:19:42.831Z,10.97
2018-02-23T13:22:10.692Z,11.33
2018-02-23T13:24:38.142Z,11.20
2018-02-23T13:27:11.055Z,11.48
2018-02-23T13:29:38.481Z,11.90
2018-02-23T13:32:05.867Z,13.13
2018-02-23T13:34:33.266Z,12.30
2018-02-23T13:37:00.677Z,12.70
2018-02-23T13:39:28.283Z,11.60
2018-02-23T13:41:55.830Z,12.60
2018-02-23T13:44:23.404Z,12.47
2018-02-23T13:46:52.679Z,13.10
2018-02-23T13:49:20.213Z,13.07
2018-02-23T13:51:50.163Z,13.70
2018-02-23T13:54:27.263Z,14.30
2018-02-23T13:56:54.634Z,13.50
2018-02-23T13:59:22.057Z,14.23
2018-02-23T14:01:49.754Z,13.68
2018-02-23T14:04:17.127Z,13.40
2018-02-23T14:06:48.473Z,13.57
2018-02-23T14:09:16.069Z,13.57
2018-02-23T14:11:43.450Z,14.37
2018-02-23T14:14:10.843Z,13.93
2018-02-23T14:16:39.583Z,15.10
2018-02-23T14:19:06.965Z,14.60
2018-02-23T14:21:35.010Z,13.30
2018-02-23T14:24:02.410Z,14.05
2018-02-23T14:26:29.850Z,14.93
2018-02-23T14:28:57.478Z,14.93
2018-02-23T14:31:24.883Z,14.25
2018-02-23T14:33:52.269Z,12.87
2018-02-23T14:36:20.210Z,13.88
2018-02-23T14:38:47.609Z,13.83
2018-02-23T14:41:14.992Z,14.70
2018-02-23T14:43:43.574Z,13.93
2018-02-23T14:46:10.971Z,14.47
2018-02-23T14:51:45.045Z,15.47
2018-02-23T14:54:22.811Z,13.93
2018-02-23T14:56:53.871Z,14.50
2018-02-23T14:59:21.461Z,13.93
2018-02-23T15:01:50.074Z,14.60
2018-02-23T15:04:17.446Z,15.10
2018-02-23T15:06:45.505Z,14.80
2018-02-23T15:09:12.897Z,15.43
2018-02-23T15:11:40.306Z,14.50
2018-02-23T15:14:07.898Z,14.70
2018-02-23T15:16:35.323Z,15.00
2018-02-23T15:19:02.891Z,14.37
2018-02-23T15:21:30.281Z,14.98
2018-02-23T15:23:57.708Z,14.70
2018-02-23T15:26:25.090Z,15.47
2018-02-23T15:28:52.723Z,16.73
2018-02-23T15:31:32.123Z,14.70
2018-02-23T15:33:59.501Z,14.37
2018-02-23T15:36:27.076Z,14.20
2018-02-23T15:38:54.635Z,14.53
2018-02-23T15:41:22.034Z,14.18
2018-02-23T15:43:50.237Z,13.45
2018-02-23T15:46:17.650Z,13.70
2018-02-23T15:48:46.567Z,13.80
2018-02-23T15:51:14.293Z,14.90
2018-02-23T15:53:41.723Z,13.17
2018-02-23T15:56:09.114Z,13.27
2018-02-23T15:58:37.484Z,13.60
2018-02-23T16:01:05.492Z,14.47
2018-02-23T16:03:32.899Z,13.03
2018-02-23T16:06:00.275Z,14.53
2018-02-23T16:08:27.689Z,13.23
2018-02-23T16:10:55.106Z,14.10
2018-02-23T16:13:22.506Z,13.17
2018-02-23T16:15:50.641Z,13.60
2018-02-23T16:18:18.054Z,13.17
2018-02-23T16:20:46.629Z,13.77
2018-02-23T16:23:15.010Z,13.33
2018-02-23T16:25:42.442Z,12.70
2018-02-23T16:28:13.630Z,12.33
2018-02-23T16:30:49.285Z,12.37
2018-02-23T16:33:17.008Z,12.10
2018-02-23T16:35:44.437Z,12.20
2018-02-23T16:38:11.916Z,12.90
2018-02-23T16:40:39.285Z,11.87
2018-02-23T16:43:06.974Z,11.80
2018-02-23T16:45:34.374Z,12.20
2018-02-23T16:48:01.874Z,11.48
2018-02-23T16:50:29.555Z,13.37
2018-02-23T16:52:56.986Z,11.12
2018-02-23T16:55:24.418Z,13.20
2018-02-23T16:57:51.808Z,12.70
2018-02-23T17:00:19.241Z,12.87
2018-02-23T17:02:46.562Z,12.30
2018-02-23T17:05:13.960Z,14.87
2018-02-23T17:07:41.342Z,13.67
2018-02-23T17:10:08.805Z,16.40
2018-02-23T17:12:36.281Z,18.12
2018-02-23T17:15:03.665Z,17.80
2018-02-23T17:17:31.063Z,17.50
2018-02-23T17:19:58.486Z,17.93
2018-02-23T17:22:25.868Z,18.12
2018-02-23T17:24:54.754Z,16.80
2018-02-23T17:27:22.151Z,17.47
2018-02-23T17:29:49.550Z,17.33
2018-02-23T17:32:16.990Z,17.55
2018-02-23T17:34:44.717Z,18.00
2018-02-23T17:37:12.177Z,17.10
2018-02-23T17:39:39.587Z,17.63
2018-02-23T17:42:06.971Z,17.30
2018-02-23T17:44:34.379Z,17.00
2018-02-23T17:47:03.056Z,17.02
2018-02-23T17:49:30.698Z,16.95
2018-02-23T17:51:58.092Z,17.70
2018-02-23T17:54:25.476Z,19.37
2018-02-23T17:56:52.930Z,18.77
2018-02-23T17:59:20.342Z,20.00
2018-02-23T18:01:47.726Z,19.53
2018-02-23T18:04:15.108Z,17.57
2018-02-23T18:06:42.505Z,18.70
2018-02-23T18:09:10.049Z,19.23
2018-02-23T18:11:37.578Z,17.45
2018-02-23T18:14:04.984Z,18.55
2018-02-23T18:16:34.453Z,16.90
2018-02-23T18:19:02.263Z,17.00
2018-02-23T18:21:31.480Z,18.46
2018-02-23T18:23:58.922Z,19.07
2018-02-23T18:26:26.279Z,20.43
2018-02-23T18:28:53.706Z,20.07
2018-02-23T18:31:21.096Z,19.07
2018-02-23T18:33:48.549Z,19.17
2018-02-23T18:36:16.171Z,18.83
2018-02-23T18:38:43.554Z,18.60
2018-02-23T18:41:10.945Z,19.50
2018-02-23T18:43:38.513Z,19.48
2018-02-23T18:46:08.460Z,20.33
2018-02-23T18:48:35.870Z,20.00
2018-02-23T18:51:03.311Z,19.23
2018-02-23T18:53:31.133Z,20.23
2018-02-23T18:55:58.515Z,19.10
2018-02-23T18:58:26.136Z,19.83
2018-02-23T19:00:53.513Z,20.07
2018-02-23T19:03:22.774Z,19.23
2018-02-23T19:05:50.149Z,17.77
2018-02-23T19:08:18.186Z,20.30
2018-02-23T19:10:45.612Z,19.40
2018-02-23T19:13:13.101Z,18.37
2018-02-23T19:15:40.501Z,17.20
2018-02-23T19:18:07.969Z,20.40
2018-02-23T19:20:35.370Z,19.80
2018-02-23T19:23:02.754Z,22.07
2018-02-23T19:25:30.620Z,20.50
2018-02-23T19:27:58.064Z,18.93
2018-02-23T19:30:25.454Z,19.67
2018-02-23T19:32:52.839Z,19.00
2018-02-23T19:35:20.232Z,20.00
2018-02-23T19:37:48.102Z,23.70
2018-02-23T19:40:15.777Z,23.70
2018-02-23T19:42:43.359Z,23.60
2018-02-23T19:45:10.855Z,25.30
2018-02-23T19:47:38.234Z,22.53
2018-02-23T19:50:05.656Z,21.00
2018-02-23T19:52:33.123Z,19.83
2018-02-23T19:55:00.709Z,20.40
2018-02-23T19:57:28.117Z,20.50
2018-02-23T19:59:55.506Z,20.10
2018-02-23T20:02:23.846Z,20.67
2018-02-23T20:04:51.768Z,22.07
2018-02-23T20:07:20.070Z,20.60
2018-02-23T20:09:47.509Z,20.67
2018-02-23T20:12:14.909Z,22.80
2018-02-23T20:14:42.299Z,21.92
2018-02-23T20:17:09.808Z,21.00
2018-02-23T20:19:37.185Z,22.83
2018-02-23T20:22:05.696Z,21.20
2018-02-23T20:24:33.066Z,20.60
2018-02-23T20:27:00.456Z,20.20
2018-02-23T20:29:27.874Z,19.57
2018-02-23T20:31:55.320Z,20.23
2018-02-23T20:34:22.713Z,22.42
2018-02-23T20:36:51.316Z,20.17
2018-02-23T20:39:18.687Z,19.85
2018-02-23T20:41:46.061Z,19.80
2018-02-23T20:44:13.461Z,20.07
2018-02-23T20:46:40.891Z,18.77
2018-02-23T20:49:08.336Z,20.47
2018-02-23T20:51:35.814Z,18.12
2018-02-23T20:54:03.486Z,17.10
2018-02-23T20:56:31.208Z,19.37
2018-02-23T20:58:58.578Z,19.73
2018-02-23T21:01:25.995Z,18.23
2018-02-23T21:03:53.366Z,19.10
2018-02-23T21:06:21.215Z,18.60
2018-02-23T21:08:49.379Z,18.47
2018-02-23T21:11:16.764Z,18.70
2018-02-23T21:13:44.158Z,18.90
2018-02-23T21:16:11.704Z,18.23
2018-02-23T21:18:39.492Z,18.10
2018-02-23T21:21:07.614Z,19.40
2018-02-23T21:23:34.987Z,17.73
2018-02-23T21:26:02.450Z,17.57
2018-02-23T21:28:29.844Z,17.58
2018-02-23T21:30:57.240Z,18.60
2018-02-23T21:33:24.947Z,18.80
2018-02-23T21:35:52.492Z,17.53
2018-02-23T21:38:21.703Z,17.77
2018-02-23T21:40:49.135Z,17.37
2018-02-23T21:43:17.585Z,18.67
2018-02-23T21:45:44.990Z,18.80
2018-02-23T21:48:12.769Z,18.48
2018-02-23T21:50:41.366Z,19.35
2018-02-23T21:53:08.756Z,18.00
2018-02-23T21:55:37.459Z,18.67
2018-02-23T21:58:05.466Z,18.70
2018-02-23T22:00:32.920Z,19.50
2018-02-23T22:03:00.539Z,18.97
2018-02-23T22:05:32.011Z,18.77
2018-02-23T22:07:59.918Z,19.13
2018-02-23T22:10:27.319Z,18.10
2018-02-23T22:12:54.707Z,18.27
2018-02-23T22:15:22.169Z,17.10
2018-02-23T22:17:49.538Z,18.63
2018-02-23T22:20:18.007Z,17.10
2018-02-23T22:22:45.626Z,18.90
2018-02-23T22:25:13.006Z,17.37
2018-02-23T22:27:40.391Z,17.98
2018-02-23T22:30:07.779Z,17.77
2018-02-23T22:32:37.378Z,17.02
2018-02-23T22:35:04.758Z,19.27
2018-02-23T22:37:32.175Z,18.17
2018-02-23T22:40:00.742Z,18.87
2018-02-23T22:42:28.717Z,17.43
2018-02-23T22:44:56.200Z,17.23
2018-02-23T22:47:23.609Z,17.80
2018-02-23T22:49:51.377Z,18.10
2018-02-23T22:52:19.018Z,18.17
2018-02-23T22:54:46.538Z,18.40
2018-02-23T22:57:13.983Z,17.77
2018-02-23T22:59:41.458Z,18.00
2018-02-23T23:02:09.163Z,17.30
2018-02-23T23:04:36.623Z,17.77
2018-02-23T23:07:20.261Z,19.77
2018-02-23T23:09:47.679Z,17.80
2018-02-23T23:12:15.079Z,18.83
2018-02-23T23:14:44.158Z,18.00
2018-02-23T23:17:12.589Z,17.40
2018-02-23T23:19:39.975Z,16.87
2018-02-23T23:22:07.352Z,17.50
2018-02-23T23:24:34.783Z,16.50
2018-02-23T23:27:02.175Z,17.97
2018-02-23T23:29:30.376Z,18.00
2018-02-23T23:31:58.867Z,16.40
2018-02-23T23:34:26.246Z,16.80
2018-02-23T23:36:53.638Z,17.33
2018-02-23T23:39:21.026Z,16.27
2018-02-23T23:41:48.431Z,17.70
2018-02-23T23:44:15.814Z,18.37
2018-02-23T23:46:43.237Z,16.70
2018-02-23T23:49:10.617Z,19.48
2018-02-23T23:51:38.026Z,18.20
2018-02-23T23:54:05.393Z,16.87
2018-02-23T23:56:33.265Z,18.00
2018-02-23T23:59:01.949Z,17.20
